Time;durP1;ratioP1;P1;durP2;ratioP2;P2;SDS_P1;SDS_P2;PMS_P1;PMS_P2;Temp;Humidity;BMP_temperature;BMP_pressure;BME280_temperature;BME280_humidity;BME280_pressure;Samples;Min_cycle;Max_cycle;Signal;HPM_P1;HPM_P2
2022/08/31 00:06:15;;;;;;;1.42;0.65;;;;;;;;;;10504049;28;20093;-78
2022/08/31 00:11:26;;;;;;;2.13;0.98;;;;;;;;;;10550355;28;20108;-78
2022/08/31 00:16:33;;;;;;;0.85;0.70;;;;;;;;;;10532652;28;20044;-78
2022/08/31 00:21:37;;;;;;;3.00;0.80;;;;;;;;;;10532202;28;20063;-78
2022/08/31 00:26:43;;;;;;;1.42;0.73;;;;;;;;;;10554309;28;24097;-77
2022/08/31 00:31:46;;;;;;;1.30;0.90;;;;;;;;;;10557409;28;20672;-77
2022/08/31 00:36:49;;;;;;;0.75;0.70;;;;;;;;;;10515968;28;20036;-78
2022/08/31 00:41:55;;;;;;;1.15;0.85;;;;;;;;;;10538445;28;20115;-77
2022/08/31 00:46:58;;;;;;;1.55;0.63;;;;;;;;;;10527826;28;20092;-77
2022/08/31 00:52:08;;;;;;;1.50;0.73;;;;;;;;;;10531683;28;20036;-78
2022/08/31 00:57:13;;;;;;;2.13;0.70;;;;;;;;;;10548222;28;20063;-78
2022/08/31 01:02:17;;;;;;;1.08;0.65;;;;;;;;;;10544634;28;20073;-78
2022/08/31 01:07:21;;;;;;;0.90;0.80;;;;;;;;;;10517688;28;20036;-78
2022/08/31 01:12:27;;;;;;;1.48;0.80;;;;;;;;;;10559113;28;20120;-78
2022/08/31 01:17:32;;;;;;;0.88;0.75;;;;;;;;;;10508586;28;20085;-78
2022/08/31 01:22:40;;;;;;;2.40;1.27;;;;;;;;;;10528724;28;20134;-79
2022/08/31 01:27:45;;;;;;;2.25;1.00;;;;;;;;;;10515747;28;20636;-78
2022/08/31 01:32:49;;;;;;;1.33;0.88;;;;;;;;;;10561098;28;20044;-78
2022/08/31 01:37:54;;;;;;;1.33;0.88;;;;;;;;;;10519556;28;20048;-77
2022/08/31 01:42:59;;;;;;;1.90;1.00;;;;;;;;;;10520858;28;20059;-78
2022/08/31 01:48:02;;;;;;;1.55;0.90;;;;;;;;;;10526859;28;20040;-78
2022/08/31 01:53:05;;;;;;;3.85;1.00;;;;;;;;;;10526498;28;20064;-78
2022/08/31 01:58:10;;;;;;;1.30;0.80;;;;;;;;;;10518069;28;20169;-78
2022/08/31 02:03:32;;;;;;;1.23;0.77;;;;;;;;;;10531351;28;20036;-77
2022/08/31 02:08:36;;;;;;;0.73;0.60;;;;;;;;;;10549285;28;20051;-78
2022/08/31 02:13:40;;;;;;;2.45;1.48;;;;;;;;;;10538904;28;20040;-78
2022/08/31 02:18:44;;;;;;;1.20;0.80;;;;;;;;;;10527830;28;20044;-78
2022/08/31 02:23:48;;;;;;;2.35;1.15;;;;;;;;;;10538385;28;20415;-78
2022/08/31 02:28:53;;;;;;;0.82;0.70;;;;;;;;;;10520488;28;20051;-78
2022/08/31 02:33:57;;;;;;;3.65;1.42;;;;;;;;;;10509734;28;20047;-78
2022/08/31 02:39:00;;;;;;;2.03;1.20;;;;;;;;;;10543331;28;20660;-78
2022/08/31 02:44:05;;;;;;;1.25;0.77;;;;;;;;;;10525452;28;20094;-78
2022/08/31 02:49:09;;;;;;;1.70;1.23;;;;;;;;;;10525701;28;20404;-79
2022/08/31 02:54:13;;;;;;;1.58;1.00;;;;;;;;;;10524983;28;20048;-78
2022/08/31 02:59:19;;;;;;;1.38;0.80;;;;;;;;;;10527605;28;20051;-77
2022/08/31 03:04:22;;;;;;;2.30;0.80;;;;;;;;;;10513653;28;20051;-78
2022/08/31 03:09:26;;;;;;;1.50;1.17;;;;;;;;;;10537889;28;20074;-78
2022/08/31 03:14:30;;;;;;;1.20;0.88;;;;;;;;;;10540665;28;20032;-77
2022/08/31 03:19:34;;;;;;;1.80;0.98;;;;;;;;;;10528765;28;20080;-78
2022/08/31 03:24:38;;;;;;;1.48;1.00;;;;;;;;;;10532551;28;20040;-78
2022/08/31 03:29:43;;;;;;;2.95;0.90;;;;;;;;;;10516057;28;20044;-78
2022/08/31 03:34:56;;;;;;;1.67;1.13;;;;;;;;;;10522253;28;20490;-78
2022/08/31 03:39:59;;;;;;;2.30;1.10;;;;;;;;;;10521144;28;20527;-78
2022/08/31 03:45:06;;;;;;;2.58;1.42;;;;;;;;;;10506354;28;20044;-79
2022/08/31 03:50:10;;;;;;;1.75;1.30;;;;;;;;;;10514529;28;20052;-78
2022/08/31 03:55:24;;;;;;;1.02;0.90;;;;;;;;;;10541472;28;20044;-78
2022/08/31 04:00:30;;;;;;;3.70;1.80;;;;;;;;;;10516658;28;20043;-77
2022/08/31 04:05:44;;;;;;;1.65;1.10;;;;;;;;;;10521022;28;20720;-78
2022/08/31 04:11:33;;;;;;;1.98;1.23;;;;;;;;;;10528089;28;20040;-77
2022/08/31 04:17:16;;;;;;;2.45;1.30;;;;;;;;;;10472741;22;20056;-83
2022/08/31 04:22:23;;;;;;;1.92;1.35;;;;;;;;;;10500606;28;20036;-83
2022/08/31 04:27:56;;;;;;;2.30;0.88;;;;;;;;;;10525863;28;20052;-81
2022/08/31 04:33:03;;;;;;;4.03;1.27;;;;;;;;;;10534330;28;20483;-81
2022/08/31 04:38:06;;;;;;;1.97;1.27;;;;;;;;;;10538617;28;20048;-80
2022/08/31 04:43:10;;;;;;;1.73;1.05;;;;;;;;;;10536088;28;20892;-80
2022/08/31 04:48:15;;;;;;;2.95;1.42;;;;;;;;;;10553368;28;20047;-81
2022/08/31 04:53:18;;;;;;;1.63;1.08;;;;;;;;;;10547133;28;20056;-80
2022/08/31 04:58:22;;;;;;;2.33;1.05;;;;;;;;;;10548575;28;20070;-80
2022/08/31 05:03:29;;;;;;;2.00;1.20;;;;;;;;;;10546214;28;20039;-79
2022/08/31 05:08:33;;;;;;;1.80;1.30;;;;;;;;;;10546016;28;20043;-81
2022/08/31 05:13:37;;;;;;;1.85;1.08;;;;;;;;;;10545678;28;20089;-81
2022/08/31 05:18:44;;;;;;;1.70;1.08;;;;;;;;;;10550394;28;20039;-81
2022/08/31 05:23:48;;;;;;;2.00;0.93;;;;;;;;;;10548379;27;20063;-81
2022/08/31 05:28:52;;;;;;;1.67;1.08;;;;;;;;;;10549658;28;20047;-81
2022/08/31 05:33:57;;;;;;;1.95;1.00;;;;;;;;;;10549485;28;20040;-80
2022/08/31 05:39:11;;;;;;;2.47;1.05;;;;;;;;;;10540473;28;20047;-81
2022/08/31 05:44:16;;;;;;;1.67;1.30;;;;;;;;;;10547998;28;20131;-81
2022/08/31 05:49:20;;;;;;;1.90;1.10;;;;;;;;;;10545159;28;20039;-81
2022/08/31 05:54:24;;;;;;;2.33;1.20;;;;;;;;;;10550284;28;20039;-82
2022/08/31 05:59:28;;;;;;;1.70;1.15;;;;;;;;;;10550326;28;20069;-83
2022/08/31 06:04:33;;;;;;;1.52;1.08;;;;;;;;;;10550009;28;20137;-82
2022/08/31 06:09:37;;;;;;;2.63;1.73;;;;;;;;;;10552621;27;20414;-83
2022/08/31 06:14:41;;;;;;;1.58;1.23;;;;;;;;;;10543313;28;20055;-83
2022/08/31 06:19:48;;;;;;;3.28;2.15;;;;;;;;;;10548717;28;20044;-83
2022/08/31 06:24:52;;;;;;;3.77;1.40;;;;;;;;;;10554881;28;20587;-83
2022/08/31 06:30:02;;;;;;;2.45;1.20;;;;;;;;;;10564605;28;20060;-81
2022/08/31 06:35:08;;;;;;;1.60;1.30;;;;;;;;;;10585589;28;20040;-81
2022/08/31 06:40:41;;;;;;;2.87;1.40;;;;;;;;;;10565601;28;20035;-81
2022/08/31 06:46:04;;;;;;;1.98;1.40;;;;;;;;;;10582017;28;20278;-83
2022/08/31 06:51:10;;;;;;;2.17;1.30;;;;;;;;;;10562312;28;20043;-83
2022/08/31 06:56:17;;;;;;;2.33;1.50;;;;;;;;;;10543066;28;20047;-83
2022/08/31 07:01:53;;;;;;;3.33;1.33;;;;;;;;;;10522476;28;20047;-83
2022/08/31 07:07:10;;;;;;;1.20;1.00;;;;;;;;;;10532842;28;20052;-82
2022/08/31 07:12:14;;;;;;;1.33;1.08;;;;;;;;;;10538395;28;20035;-82
2022/08/31 07:17:17;;;;;;;1.80;1.17;;;;;;;;;;10535821;28;20690;-83
2022/08/31 07:22:22;;;;;;;2.22;1.30;;;;;;;;;;10549216;28;20511;-82
2022/08/31 07:27:34;;;;;;;2.38;1.23;;;;;;;;;;10565973;27;20461;-83
2022/08/31 07:32:38;;;;;;;1.67;1.50;;;;;;;;;;10546117;28;20035;-83
2022/08/31 07:43:06;;;;;;;1.92;1.27;;;;;;;;;;10582661;28;20047;-81
2022/08/31 07:48:11;;;;;;;1.08;0.95;;;;;;;;;;10561478;28;20036;-82
2022/08/31 07:53:43;;;;;;;1.58;1.30;;;;;;;;;;10567587;28;20111;-81
2022/08/31 07:58:59;;;;;;;1.30;1.10;;;;;;;;;;10571961;28;20099;-81
2022/08/31 08:04:02;;;;;;;2.03;1.15;;;;;;;;;;10544903;28;20082;-80
2022/08/31 08:09:29;;;;;;;2.28;1.30;;;;;;;;;;10560834;27;20043;-80
2022/08/31 08:14:39;;;;;;;1.40;0.88;;;;;;;;;;10538371;28;20058;-81
2022/08/31 08:19:55;;;;;;;2.67;1.15;;;;;;;;;;10537028;28;20043;-82
2022/08/31 08:25:01;;;;;;;2.13;1.45;;;;;;;;;;10538517;28;20604;-82
2022/08/31 08:30:18;;;;;;;1.13;1.02;;;;;;;;;;10535192;28;20502;-81
2022/08/31 08:35:21;;;;;;;2.95;1.80;;;;;;;;;;10536953;28;20549;-81
2022/08/31 08:40:32;;;;;;;2.42;1.33;;;;;;;;;;10546027;28;20058;-81
2022/08/31 08:45:36;;;;;;;1.42;1.30;;;;;;;;;;10544814;28;20043;-82
2022/08/31 08:50:42;;;;;;;2.63;1.27;;;;;;;;;;10540140;28;20052;-82
2022/08/31 08:55:54;;;;;;;1.33;1.10;;;;;;;;;;10570339;28;20066;-82
2022/08/31 09:00:59;;;;;;;1.90;1.40;;;;;;;;;;10553316;27;20047;-82
2022/08/31 09:06:09;;;;;;;1.60;1.42;;;;;;;;;;10564472;28;20035;-82
2022/08/31 09:11:25;;;;;;;2.10;1.60;;;;;;;;;;10538489;28;20062;-82
2022/08/31 09:16:37;;;;;;;3.30;2.22;;;;;;;;;;10544270;28;20081;-82
2022/08/31 09:21:44;;;;;;;2.65;2.10;;;;;;;;;;10544933;28;20059;-81
2022/08/31 09:26:59;;;;;;;4.97;1.92;;;;;;;;;;10545393;28;20671;-82
2022/08/31 09:32:15;;;;;;;3.17;1.83;;;;;;;;;;10535045;28;20040;-81
2022/08/31 09:37:24;;;;;;;2.20;1.98;;;;;;;;;;10516391;28;20535;-81
2022/08/31 09:42:32;;;;;;;2.55;1.52;;;;;;;;;;10560053;28;20070;-82
2022/08/31 09:47:43;;;;;;;2.10;1.45;;;;;;;;;;10544213;28;20322;-81
2022/08/31 09:58:13;;;;;;;4.30;1.52;;;;;;;;;;10540888;28;20047;-81
2022/08/31 10:03:22;;;;;;;1.83;1.27;;;;;;;;;;10558171;28;20067;-82
2022/08/31 10:08:38;;;;;;;2.38;1.90;;;;;;;;;;10538010;28;20131;-82
2022/08/31 10:13:53;;;;;;;1.90;1.40;;;;;;;;;;10569701;27;20051;-83
2022/08/31 10:19:01;;;;;;;1.90;1.40;;;;;;;;;;10541083;28;20048;-82
2022/08/31 10:24:19;;;;;;;1.55;1.42;;;;;;;;;;10546833;28;20059;-82
2022/08/31 10:29:32;;;;;;;1.83;1.48;;;;;;;;;;10537138;27;20108;-82
2022/08/31 10:35:04;;;;;;;2.92;2.00;;;;;;;;;;10532522;28;20096;-82
2022/08/31 10:40:12;;;;;;;3.25;2.28;;;;;;;;;;10538397;28;20039;-82
2022/08/31 10:45:21;;;;;;;5.90;2.97;;;;;;;;;;10541111;28;20050;-82
2022/08/31 10:50:34;;;;;;;3.85;2.20;;;;;;;;;;10533560;28;20063;-82
2022/08/31 10:55:47;;;;;;;3.22;2.60;;;;;;;;;;10540822;28;20035;-82
2022/08/31 11:00:56;;;;;;;1.77;1.60;;;;;;;;;;10549641;28;20067;-82
2022/08/31 11:06:04;;;;;;;1.83;1.52;;;;;;;;;;10535462;28;20088;-80
2022/08/31 11:11:11;;;;;;;1.70;1.60;;;;;;;;;;10546781;28;20047;-82
2022/08/31 11:16:38;;;;;;;2.08;1.33;;;;;;;;;;10538242;28;20047;-82
2022/08/31 11:22:15;;;;;;;1.80;1.55;;;;;;;;;;10538000;28;20684;-82
2022/08/31 11:27:22;;;;;;;2.13;1.30;;;;;;;;;;10551804;28;20051;-81
2022/08/31 11:32:33;;;;;;;2.63;1.75;;;;;;;;;;10540448;28;20118;-82
2022/08/31 11:37:53;;;;;;;1.98;1.40;;;;;;;;;;10539073;28;20032;-82
2022/08/31 11:43:00;;;;;;;5.38;3.38;;;;;;;;;;10539695;28;20048;-82
2022/08/31 11:48:05;;;;;;;1.70;1.40;;;;;;;;;;10536500;28;20047;-81
2022/08/31 11:53:24;;;;;;;1.40;1.17;;;;;;;;;;10539384;28;20492;-81
2022/08/31 11:58:33;;;;;;;1.65;1.30;;;;;;;;;;10533268;28;20495;-81
2022/08/31 12:04:02;;;;;;;2.78;1.38;;;;;;;;;;10534588;28;20039;-81
2022/08/31 12:09:22;;;;;;;1.90;1.60;;;;;;;;;;10532185;28;20039;-82
2022/08/31 12:14:33;;;;;;;1.95;1.50;;;;;;;;;;10488333;28;20102;-82
2022/08/31 12:20:00;;;;;;;1.02;0.93;;;;;;;;;;10501894;28;20134;-82
2022/08/31 12:25:11;;;;;;;1.52;1.38;;;;;;;;;;10519945;28;20178;-82
2022/08/31 12:30:19;;;;;;;2.30;1.20;;;;;;;;;;10511840;28;20047;-82
2022/08/31 12:35:26;;;;;;;2.47;2.08;;;;;;;;;;10502559;28;20649;-82
2022/08/31 12:40:32;;;;;;;1.70;1.15;;;;;;;;;;10516347;28;20032;-82
2022/08/31 12:46:17;;;;;;;3.00;1.75;;;;;;;;;;10515462;28;20036;-82
2022/08/31 12:51:34;;;;;;;1.50;1.27;;;;;;;;;;10503473;28;20074;-82
2022/08/31 12:56:44;;;;;;;2.40;1.67;;;;;;;;;;10531204;28;20547;-83
2022/08/31 13:01:49;;;;;;;1.65;1.35;;;;;;;;;;10520034;28;20047;-82
2022/08/31 13:06:54;;;;;;;4.22;1.52;;;;;;;;;;10530879;28;20048;-82
2022/08/31 13:12:00;;;;;;;1.27;1.17;;;;;;;;;;10533887;28;20056;-82
2022/08/31 13:17:10;;;;;;;2.67;0.93;;;;;;;;;;10507167;28;20125;-83
2022/08/31 13:22:22;;;;;;;1.10;1.00;;;;;;;;;;10533761;28;20047;-81
2022/08/31 13:27:29;;;;;;;1.98;1.02;;;;;;;;;;10517741;28;20525;-83
2022/08/31 13:32:33;;;;;;;1.23;1.13;;;;;;;;;;10532449;28;20744;-82
2022/08/31 13:37:43;;;;;;;1.00;1.00;;;;;;;;;;10528400;28;20068;-82
2022/08/31 13:42:51;;;;;;;0.90;0.90;;;;;;;;;;10520626;28;20124;-82
2022/08/31 13:47:57;;;;;;;1.45;1.00;;;;;;;;;;10535653;28;20135;-83
2022/08/31 13:53:04;;;;;;;1.33;1.23;;;;;;;;;;10530196;28;20530;-83
2022/08/31 13:58:31;;;;;;;1.65;1.20;;;;;;;;;;10543869;28;20051;-83
2022/08/31 14:03:44;;;;;;;1.10;0.90;;;;;;;;;;10536956;28;20216;-83
2022/08/31 14:08:52;;;;;;;1.38;1.08;;;;;;;;;;10532032;28;20120;-83
2022/08/31 14:14:03;;;;;;;1.85;1.20;;;;;;;;;;10533237;28;20346;-82
2022/08/31 14:19:09;;;;;;;1.73;0.93;;;;;;;;;;10518325;28;20101;-83
2022/08/31 14:24:15;;;;;;;1.25;1.00;;;;;;;;;;10548846;28;20569;-83
2022/08/31 14:29:18;;;;;;;1.30;1.10;;;;;;;;;;10522198;27;20092;-82
2022/08/31 14:34:26;;;;;;;2.00;1.00;;;;;;;;;;10534861;28;20071;-82
2022/08/31 14:39:35;;;;;;;1.77;0.82;;;;;;;;;;10534701;28;20040;-82
2022/08/31 14:44:41;;;;;;;1.35;0.90;;;;;;;;;;10509448;28;20059;-83
2022/08/31 14:49:44;;;;;;;1.23;0.90;;;;;;;;;;10505273;28;20127;-82
2022/08/31 14:54:49;;;;;;;1.48;1.25;;;;;;;;;;10545312;28;20041;-82
2022/08/31 14:59:56;;;;;;;4.40;1.23;;;;;;;;;;10577513;28;20044;-84
2022/08/31 15:05:03;;;;;;;3.45;0.90;;;;;;;;;;10533134;28;20065;-82
2022/08/31 15:10:11;;;;;;;1.45;1.13;;;;;;;;;;10527979;28;20071;-83
2022/08/31 15:15:19;;;;;;;2.38;1.00;;;;;;;;;;10525074;28;20063;-83
2022/08/31 15:20:22;;;;;;;0.95;0.70;;;;;;;;;;10499613;28;20052;-83
2022/08/31 15:25:27;;;;;;;1.25;1.00;;;;;;;;;;10552957;28;20537;-83
2022/08/31 15:30:32;;;;;;;1.10;0.80;;;;;;;;;;10501477;28;20071;-83
2022/08/31 15:35:40;;;;;;;1.20;1.10;;;;;;;;;;10522386;28;20118;-84
2022/08/31 15:40:45;;;;;;;1.65;0.90;;;;;;;;;;10509759;28;20286;-84
2022/08/31 15:45:48;;;;;;;1.07;0.97;;;;;;;;;;10523198;28;20090;-83
2022/08/31 15:51:00;;;;;;;1.70;1.10;;;;;;;;;;10505917;28;20442;-83
2022/08/31 15:56:08;;;;;;;1.55;1.10;;;;;;;;;;10515206;28;20176;-83
2022/08/31 16:01:14;;;;;;;1.75;0.98;;;;;;;;;;10511411;28;20488;-83
2022/08/31 16:06:20;;;;;;;1.25;1.00;;;;;;;;;;10514209;28;20066;-82
2022/08/31 16:11:26;;;;;;;0.80;0.60;;;;;;;;;;10529862;28;20054;-83
2022/08/31 16:16:33;;;;;;;0.98;0.80;;;;;;;;;;10528113;28;20536;-83
2022/08/31 16:21:39;;;;;;;1.65;1.08;;;;;;;;;;10539206;28;20527;-83
2022/08/31 16:26:46;;;;;;;1.67;0.80;;;;;;;;;;10523977;28;20047;-83
2022/08/31 16:31:50;;;;;;;1.58;0.90;;;;;;;;;;10544445;28;20416;-82
2022/08/31 16:36:55;;;;;;;0.70;0.70;;;;;;;;;;10541186;28;20040;-81
2022/08/31 16:42:00;;;;;;;0.63;0.63;;;;;;;;;;10526233;28;20052;-82
2022/08/31 16:47:05;;;;;;;0.70;0.70;;;;;;;;;;10552105;28;20146;-83
2022/08/31 16:52:11;;;;;;;2.10;1.00;;;;;;;;;;10524853;28;20057;-82
2022/08/31 16:57:19;;;;;;;0.73;0.73;;;;;;;;;;10531487;28;20317;-81
2022/08/31 17:02:27;;;;;;;0.73;0.70;;;;;;;;;;10506320;28;20047;-82
2022/08/31 17:07:30;;;;;;;0.95;0.65;;;;;;;;;;10529026;28;20040;-81
2022/08/31 17:12:37;;;;;;;0.77;0.77;;;;;;;;;;10531298;28;20061;-82
2022/08/31 17:17:41;;;;;;;0.80;0.80;;;;;;;;;;10537726;28;20048;-82
2022/08/31 17:22:45;;;;;;;1.00;0.90;;;;;;;;;;10524108;28;20071;-82
2022/08/31 17:27:50;;;;;;;1.20;1.10;;;;;;;;;;10522508;28;20048;-82
2022/08/31 17:32:53;;;;;;;1.10;0.87;;;;;;;;;;10540343;28;20050;-81
2022/08/31 17:37:58;;;;;;;0.90;0.90;;;;;;;;;;10545808;28;20062;-82
2022/08/31 17:43:03;;;;;;;0.73;0.73;;;;;;;;;;10537898;28;20044;-81
2022/08/31 17:48:06;;;;;;;1.30;1.00;;;;;;;;;;10548090;28;20179;-81
2022/08/31 17:53:10;;;;;;;1.50;0.95;;;;;;;;;;10536933;28;20757;-81
2022/08/31 17:58:15;;;;;;;1.10;1.00;;;;;;;;;;10540593;28;20050;-81
2022/08/31 18:03:18;;;;;;;2.37;0.90;;;;;;;;;;10543388;28;20526;-81
2022/08/31 18:08:25;;;;;;;1.30;1.10;;;;;;;;;;10553041;28;20121;-81
2022/08/31 18:13:30;;;;;;;2.22;0.95;;;;;;;;;;10522995;28;20048;-81
2022/08/31 18:18:34;;;;;;;2.40;1.10;;;;;;;;;;10525878;28;20116;-81
2022/08/31 18:23:37;;;;;;;1.15;1.05;;;;;;;;;;10553079;28;20047;-82
2022/08/31 18:28:42;;;;;;;1.20;1.10;;;;;;;;;;10546745;28;20141;-81
2022/08/31 18:33:50;;;;;;;1.90;1.13;;;;;;;;;;10534117;27;20111;-81
2022/08/31 18:38:55;;;;;;;1.77;1.10;;;;;;;;;;10534322;28;20051;-81
2022/08/31 18:50:15;;;;;;;;;;;;;;;;;;10503083;28;20050;-81
2022/08/31 18:55:19;;;;;;;1.08;0.98;;;;;;;;;;10534966;28;19923;-81
2022/08/31 19:00:23;;;;;;;1.75;1.25;;;;;;;;;;10546085;28;20044;-81
2022/08/31 19:05:28;;;;;;;1.20;1.10;;;;;;;;;;10550929;28;20097;-81
2022/08/31 19:10:33;;;;;;;1.20;1.10;;;;;;;;;;10531471;28;20039;-81
2022/08/31 19:15:38;;;;;;;1.23;1.13;;;;;;;;;;10552540;28;20044;-81
2022/08/31 19:20:43;;;;;;;2.63;1.30;;;;;;;;;;10550609;28;20047;-81
2022/08/31 19:25:47;;;;;;;1.55;1.17;;;;;;;;;;10527900;28;20040;-81
2022/08/31 19:30:51;;;;;;;1.23;1.00;;;;;;;;;;10535085;28;20050;-81
2022/08/31 19:35:59;;;;;;;1.35;0.90;;;;;;;;;;10527920;28;20058;-80
2022/08/31 19:41:03;;;;;;;1.30;1.20;;;;;;;;;;10536641;28;20168;-81
2022/08/31 19:46:12;;;;;;;2.42;1.10;;;;;;;;;;10511641;28;20043;-81
2022/08/31 19:51:19;;;;;;;2.17;1.30;;;;;;;;;;10519246;28;20040;-81
2022/08/31 19:56:29;;;;;;;1.75;1.17;;;;;;;;;;10539604;28;20066;-80
2022/08/31 20:01:33;;;;;;;2.13;1.15;;;;;;;;;;10512387;28;20043;-80
2022/08/31 20:06:38;;;;;;;2.25;1.33;;;;;;;;;;10553292;28;20123;-81
2022/08/31 20:11:46;;;;;;;1.57;1.20;;;;;;;;;;10533313;28;20347;-81
2022/08/31 20:16:50;;;;;;;2.55;1.52;;;;;;;;;;10547085;28;20051;-80
2022/08/31 20:22:05;;;;;;;2.55;1.35;;;;;;;;;;10532300;28;20123;-81
2022/08/31 20:27:09;;;;;;;1.30;1.08;;;;;;;;;;10519121;28;20423;-81
2022/08/31 20:32:12;;;;;;;2.15;1.40;;;;;;;;;;10516620;28;20048;-82
2022/08/31 20:37:18;;;;;;;3.88;1.33;;;;;;;;;;10525700;28;20070;-82
2022/08/31 20:42:22;;;;;;;2.33;1.98;;;;;;;;;;10522581;28;20046;-82
2022/08/31 20:52:47;;;;;;;1.48;1.30;;;;;;;;;;10561137;28;20058;-81
2022/08/31 20:57:51;;;;;;;3.10;1.40;;;;;;;;;;10536020;28;20055;-81
2022/08/31 21:02:55;;;;;;;1.75;1.40;;;;;;;;;;10517993;28;20101;-80
2022/08/31 21:08:01;;;;;;;2.42;1.40;;;;;;;;;;10529686;28;20054;-81
2022/08/31 21:13:05;;;;;;;;;;;;;;;;;;10532130;28;20070;-81
2022/08/31 21:18:09;;;;;;;2.33;1.40;;;;;;;;;;10508434;28;20379;-80
2022/08/31 21:23:14;;;;;;;2.08;1.58;;;;;;;;;;10524661;28;20529;-81
2022/08/31 21:28:17;;;;;;;3.47;1.80;;;;;;;;;;10527206;28;20044;-80
2022/08/31 21:33:21;;;;;;;2.30;1.42;;;;;;;;;;10537894;28;20457;-81
2022/08/31 21:38:26;;;;;;;2.13;1.50;;;;;;;;;;10538668;28;20039;-81
2022/08/31 21:43:30;;;;;;;1.77;1.30;;;;;;;;;;10541826;28;20051;-80
2022/08/31 21:48:36;;;;;;;2.25;1.58;;;;;;;;;;10535627;28;20070;-80
2022/08/31 21:53:43;;;;;;;2.03;1.52;;;;;;;;;;10508715;28;20047;-80
2022/08/31 21:58:48;;;;;;;3.38;1.40;;;;;;;;;;10519072;28;20047;-80
2022/08/31 22:03:56;;;;;;;2.67;1.58;;;;;;;;;;10553052;28;20044;-81
2022/08/31 22:09:06;;;;;;;3.25;2.00;;;;;;;;;;10551605;28;20075;-81
2022/08/31 22:14:11;;;;;;;2.03;1.52;;;;;;;;;;10527917;28;20036;-81
2022/08/31 22:19:17;;;;;;;1.95;1.55;;;;;;;;;;10532550;28;20625;-81
2022/08/31 22:24:25;;;;;;;2.45;1.38;;;;;;;;;;10497591;28;20474;-80
2022/08/31 22:29:30;;;;;;;2.03;1.35;;;;;;;;;;10509971;28;20120;-80
2022/08/31 22:34:34;;;;;;;1.80;1.37;;;;;;;;;;10523116;28;20127;-80
2022/08/31 22:39:41;;;;;;;3.08;1.58;;;;;;;;;;10533288;28;20725;-80
2022/08/31 22:44:44;;;;;;;2.17;1.40;;;;;;;;;;10545251;28;20043;-80
2022/08/31 22:49:48;;;;;;;1.90;1.30;;;;;;;;;;10536720;28;20312;-79
2022/08/31 22:54:52;;;;;;;3.08;1.45;;;;;;;;;;10512991;28;20159;-80
2022/08/31 22:59:56;;;;;;;1.58;1.48;;;;;;;;;;10539385;28;20197;-80
2022/08/31 23:05:01;;;;;;;1.95;1.40;;;;;;;;;;10531968;28;20135;-80
2022/08/31 23:10:08;;;;;;;1.70;1.33;;;;;;;;;;10553093;28;20071;-80
2022/08/31 23:15:14;;;;;;;3.05;1.65;;;;;;;;;;10523404;28;20127;-81
2022/08/31 23:20:22;;;;;;;2.33;1.40;;;;;;;;;;10541748;28;20039;-80
2022/08/31 23:25:27;;;;;;;3.15;1.52;;;;;;;;;;10531804;28;20059;-81
2022/08/31 23:30:31;;;;;;;4.07;1.40;;;;;;;;;;10514400;28;20112;-81
2022/08/31 23:35:34;;;;;;;2.72;1.40;;;;;;;;;;10560834;28;20063;-81
2022/08/31 23:40:39;;;;;;;1.90;1.45;;;;;;;;;;10523777;28;20051;-80
2022/08/31 23:45:43;;;;;;;2.35;1.45;;;;;;;;;;10524257;28;20043;-82
2022/08/31 23:50:46;;;;;;;2.85;1.55;;;;;;;;;;10530349;28;20044;-81
2022/08/31 23:55:51;;;;;;;1.67;1.45;;;;;;;;;;10515567;28;20044;-82
